createdAt,value
2019-05-07T00:02:32.718Z,97526.63
2019-05-07T00:05:42.700Z,97526.63
2019-05-07T00:08:49.286Z,97540.61
2019-05-07T00:11:57.915Z,97546.27
2019-05-07T00:15:06.579Z,97535.86
2019-05-07T00:18:14.560Z,97537.39
2019-05-07T00:21:23.358Z,97519.81
2019-05-07T00:24:30.327Z,97519.81
2019-05-07T00:27:42.775Z,97527.00
2019-05-07T00:30:52.131Z,97539.97
2019-05-07T00:33:59.416Z,97539.70
2019-05-07T00:37:17.260Z,97537.56
2019-05-07T00:40:33.050Z,97523.22
2019-05-07T00:43:43.282Z,97531.36
2019-05-07T00:46:52.515Z,97520.14
2019-05-07T00:50:05.246Z,97528.42
2019-05-07T00:53:13.277Z,97520.81
2019-05-07T00:56:22.316Z,97519.98
2019-05-07T00:59:32.230Z,97508.20
2019-05-07T01:02:40.491Z,97508.20
2019-05-07T01:05:49.001Z,97523.97
2019-05-07T01:08:57.017Z,97513.78
2019-05-07T01:12:05.246Z,97521.74
2019-05-07T01:15:27.679Z,97517.89
2019-05-07T01:18:23.587Z,97516.40
2019-05-07T01:21:32.444Z,97515.14
2019-05-07T01:24:42.954Z,97515.14
2019-05-07T01:27:50.577Z,97507.80
2019-05-07T01:30:58.688Z,97493.53
2019-05-07T01:34:15.260Z,97493.53
2019-05-07T01:37:24.271Z,97507.06
2019-05-07T01:40:32.475Z,97504.81
2019-05-07T01:43:39.602Z,97502.52
2019-05-07T01:46:46.297Z,97500.27
2019-05-07T01:49:55.111Z,97499.84
2019-05-07T01:53:03.873Z,97496.98
2019-05-07T01:56:12.506Z,97484.66
2019-05-07T01:59:22.468Z,97504.08
2019-05-07T02:02:43.284Z,97504.08
2019-05-07T02:06:05.245Z,97503.75
2019-05-07T02:09:25.672Z,97504.80
2019-05-07T02:12:35.254Z,97493.38
2019-05-07T02:15:57.380Z,97512.55
2019-05-07T02:18:52.826Z,97510.58
2019-05-07T02:22:02.759Z,97501.34
2019-05-07T02:25:12.467Z,97510.26
2019-05-07T02:28:22.287Z,97510.26
2019-05-07T02:31:33.686Z,97511.41
2019-05-07T02:34:44.210Z,97486.96
2019-05-07T02:37:56.998Z,97486.96
2019-05-07T02:41:14.187Z,97512.29
2019-05-07T02:44:23.212Z,97515.17
2019-05-07T02:47:33.140Z,97495.20
2019-05-07T02:50:57.694Z,97515.63
2019-05-07T02:54:23.773Z,97515.63
2019-05-07T02:57:34.052Z,97521.99
2019-05-07T03:00:43.084Z,97506.36
2019-05-07T03:03:52.852Z,97506.36
2019-05-07T03:07:03.646Z,97518.88
2019-05-07T03:10:13.651Z,97511.38
2019-05-07T03:13:23.434Z,97505.69
2019-05-07T03:16:39.631Z,97507.50
2019-05-07T03:19:43.017Z,97511.78
2019-05-07T03:22:53.569Z,97513.33
2019-05-07T03:26:07.274Z,97503.51
2019-05-07T03:29:24.006Z,97519.29
2019-05-07T03:32:38.756Z,97502.41
2019-05-07T03:35:55.439Z,97509.37
2019-05-07T03:38:59.517Z,97506.01
2019-05-07T03:42:07.584Z,97506.01
2019-05-07T03:45:42.983Z,97507.69
2019-05-07T03:48:52.916Z,97507.69
2019-05-07T03:52:00.055Z,97498.23
2019-05-07T03:55:09.216Z,97498.23
2019-05-07T03:58:17.723Z,97507.64
2019-05-07T04:01:25.537Z,97502.40
2019-05-07T04:04:33.524Z,97492.47
2019-05-07T04:07:43.095Z,97508.48
2019-05-07T04:10:53.833Z,97508.48
2019-05-07T04:14:02.602Z,97509.83
2019-05-07T04:17:17.339Z,97509.57
2019-05-07T04:20:23.706Z,97514.70
2019-05-07T04:23:33.745Z,97511.78
2019-05-07T04:26:43.871Z,97508.77
2019-05-07T04:29:53.233Z,97500.43
2019-05-07T04:33:03.428Z,97505.53
2019-05-07T04:36:39.535Z,97505.84
2019-05-07T04:39:54.439Z,97506.67
2019-05-07T04:43:02.793Z,97492.24
2019-05-07T04:46:14.081Z,97510.53
2019-05-07T04:49:23.593Z,97502.91
2019-05-07T04:52:34.739Z,97512.61
2019-05-07T04:55:43.186Z,97515.89
2019-05-07T04:58:53.392Z,97504.87
2019-05-07T05:02:13.565Z,97504.87
2019-05-07T05:05:24.081Z,97531.96
2019-05-07T05:08:32.710Z,97532.06
2019-05-07T05:11:40.580Z,97537.23
2019-05-07T05:14:48.642Z,97532.56
2019-05-07T05:17:58.669Z,97529.67
2019-05-07T05:21:26.729Z,97536.98
2019-05-07T05:24:42.422Z,97531.01
2019-05-07T05:27:52.414Z,97535.24
2019-05-07T05:31:03.416Z,97535.24
2019-05-07T05:34:13.072Z,97524.84
2019-05-07T05:37:22.644Z,97524.84
2019-05-07T05:40:32.003Z,97533.27
2019-05-07T05:44:05.549Z,97537.40
2019-05-07T05:47:13.573Z,97514.13
2019-05-07T05:50:21.912Z,97530.12
2019-05-07T05:53:38.641Z,97530.12
2019-05-07T05:56:54.904Z,97539.21
2019-05-07T06:00:26.399Z,97535.95
2019-05-07T06:03:59.284Z,97538.39
2019-05-07T06:07:26.222Z,97535.59
2019-05-07T06:11:09.190Z,97536.37
2019-05-07T06:14:45.338Z,97539.81
2019-05-07T06:18:06.862Z,97534.02
2019-05-07T06:21:33.914Z,97532.42
2019-05-07T06:24:47.147Z,97537.78
2019-05-07T06:27:55.251Z,97534.62
2019-05-07T06:31:03.566Z,97543.34
2019-05-07T06:34:12.455Z,97543.14
2019-05-07T06:37:22.661Z,97543.14
2019-05-07T06:40:58.463Z,97545.69
2019-05-07T06:44:09.665Z,97546.25
2019-05-07T06:47:17.557Z,97540.88
2019-05-07T06:50:25.503Z,97539.89
2019-05-07T06:53:34.892Z,97539.89
2019-05-07T06:56:43.028Z,97544.05
2019-05-07T06:59:54.644Z,97552.66
2019-05-07T07:03:12.731Z,97552.92
2019-05-07T07:06:25.430Z,97551.90
2019-05-07T07:09:47.231Z,97545.57
2019-05-07T07:12:55.623Z,97542.50
2019-05-07T07:16:04.136Z,97534.48
2019-05-07T07:19:12.714Z,97534.48
2019-05-07T07:22:22.257Z,97563.01
2019-05-07T07:25:32.515Z,97561.41
2019-05-07T07:28:42.783Z,97557.19
2019-05-07T07:31:59.270Z,97554.94
2019-05-07T07:35:09.723Z,97558.02
2019-05-07T07:38:34.159Z,97553.39
2019-05-07T07:41:54.230Z,97556.55
2019-05-07T07:45:16.256Z,97554.92
2019-05-07T07:48:24.950Z,97550.58
2019-05-07T07:51:41.095Z,97550.84
2019-05-07T07:54:45.432Z,97542.59
2019-05-07T07:58:04.471Z,97564.30
2019-05-07T08:01:22.476Z,97546.34
2019-05-07T08:04:32.035Z,97543.97
2019-05-07T08:07:42.601Z,97551.17
2019-05-07T08:10:49.445Z,97545.94
2019-05-07T08:13:57.343Z,97552.75
2019-05-07T08:17:07.702Z,97553.22
2019-05-07T08:20:17.750Z,97539.42
2019-05-07T08:23:25.569Z,97538.95
2019-05-07T08:26:33.551Z,97541.77
2019-05-07T08:29:43.033Z,97541.17
2019-05-07T08:33:02.217Z,97541.17
2019-05-07T08:36:14.735Z,97527.59
2019-05-07T08:39:25.168Z,97524.07
2019-05-07T08:42:33.526Z,97522.47
2019-05-07T08:45:58.924Z,97512.86
2019-05-07T08:49:08.247Z,97512.86
2019-05-07T08:52:16.543Z,97536.94
2019-05-07T08:55:24.520Z,97510.61
2019-05-07T08:58:32.552Z,97510.61
2019-05-07T09:05:46.436Z,97502.53
2019-05-07T09:08:54.526Z,97509.17
2019-05-07T09:12:03.150Z,97500.52
2019-05-07T09:15:12.649Z,97500.52
2019-05-07T09:18:22.814Z,97525.65
2019-05-07T09:21:32.223Z,97521.27
2019-05-07T09:24:39.606Z,97515.95
2019-05-07T09:27:48.496Z,97510.02
2019-05-07T09:31:06.241Z,97505.28
2019-05-07T09:34:14.522Z,97492.90
2019-05-07T09:37:26.475Z,97467.75
2019-05-07T09:40:34.635Z,97467.75
2019-05-07T09:43:42.526Z,97481.94
2019-05-07T09:46:52.055Z,97475.02
2019-05-07T09:50:05.496Z,97475.02
2019-05-07T09:53:12.544Z,97470.26
2019-05-07T09:56:22.464Z,97468.18
2019-05-07T09:59:32.356Z,97465.36
2019-05-07T10:06:36.425Z,97457.58
2019-05-07T10:09:43.543Z,97453.02
2019-05-07T10:13:18.827Z,97448.17
2019-05-07T10:16:32.403Z,97433.75
2019-05-07T10:19:41.741Z,97446.24
2019-05-07T10:22:51.862Z,97446.24
2019-05-07T10:26:01.666Z,97460.34
2019-05-07T10:29:09.469Z,97455.17
2019-05-07T10:32:17.659Z,97454.48
2019-05-07T10:35:27.256Z,97460.07
2019-05-07T10:38:35.588Z,97453.70
2019-05-07T10:41:43.682Z,97458.87
2019-05-07T10:45:13.040Z,97458.87
2019-05-07T10:48:39.747Z,97450.80
2019-05-07T10:51:47.642Z,97453.05
2019-05-07T10:54:59.766Z,97455.85
2019-05-07T10:58:05.548Z,97455.87
2019-05-07T11:01:16.356Z,97441.48
2019-05-07T11:04:39.052Z,97441.48
2019-05-07T11:07:35.556Z,97443.38
2019-05-07T11:10:43.601Z,97433.67
2019-05-07T11:13:55.522Z,97428.52
2019-05-07T11:21:34.297Z,97446.17
2019-05-07T11:24:42.689Z,97442.56
2019-05-07T11:27:52.411Z,97434.20
2019-05-07T11:31:02.076Z,97435.71
2019-05-07T11:34:11.923Z,97409.47
2019-05-07T11:37:22.467Z,97409.47
2019-05-07T11:40:34.467Z,97422.17
2019-05-07T11:43:58.147Z,97424.97
2019-05-07T11:47:22.375Z,97425.81
2019-05-07T11:51:01.365Z,97413.52
2019-05-07T11:54:12.833Z,97404.22
2019-05-07T11:57:22.150Z,97412.33
2019-05-07T12:00:38.064Z,97406.60
2019-05-07T12:03:46.114Z,97414.91
2019-05-07T12:06:54.614Z,97412.95
2019-05-07T12:10:04.862Z,97412.59
2019-05-07T12:13:12.917Z,97409.42
2019-05-07T12:16:22.341Z,97411.24
2019-05-07T12:19:30.508Z,97379.11
2019-05-07T12:22:48.262Z,97391.81
2019-05-07T12:25:56.855Z,97391.81
2019-05-07T12:29:05.140Z,97395.97
2019-05-07T12:32:48.007Z,97396.70
2019-05-07T12:35:56.266Z,97401.18
2019-05-07T12:39:07.684Z,97402.93
2019-05-07T12:42:15.437Z,97400.16
2019-05-07T12:45:23.454Z,97392.64
2019-05-07T12:48:30.303Z,97392.59
2019-05-07T12:51:56.746Z,97396.56
2019-05-07T12:55:13.564Z,97389.48
2019-05-07T12:58:21.872Z,97364.99
2019-05-07T13:01:48.764Z,97364.99
2019-05-07T13:04:58.093Z,97366.23
2019-05-07T13:08:06.657Z,97363.02
2019-05-07T13:11:15.052Z,97369.30
2019-05-07T13:17:46.595Z,97369.91
2019-05-07T13:20:54.845Z,97366.84
2019-05-07T13:24:02.835Z,97366.84
2019-05-07T13:27:11.261Z,97365.30
2019-05-07T13:30:22.181Z,97371.59
2019-05-07T13:33:31.651Z,97368.31
2019-05-07T13:36:44.242Z,97378.45
2019-05-07T13:40:17.226Z,97368.19
2019-05-07T13:43:30.907Z,97367.44
2019-05-07T13:46:42.122Z,97364.29
2019-05-07T13:49:53.566Z,97360.90
2019-05-07T13:53:01.765Z,97334.92
2019-05-07T13:56:12.684Z,97334.92
2019-05-07T13:59:22.270Z,97349.19
2019-05-07T14:02:32.697Z,97350.16
2019-05-07T14:05:42.534Z,97341.30
2019-05-07T14:08:51.704Z,97338.66
2019-05-07T14:12:01.896Z,97341.85
2019-05-07T14:15:09.539Z,97339.17
2019-05-07T14:18:19.267Z,97325.56
2019-05-07T14:21:27.239Z,97327.78
2019-05-07T14:24:36.586Z,97320.94
2019-05-07T14:27:44.608Z,97319.54
2019-05-07T14:30:53.264Z,97322.59
2019-05-07T14:34:12.484Z,97322.59
2019-05-07T14:37:32.494Z,97326.50
2019-05-07T14:40:42.697Z,97314.94
2019-05-07T14:44:01.242Z,97317.74
2019-05-07T14:47:10.401Z,97314.45
2019-05-07T14:50:22.426Z,97315.30
2019-05-07T14:53:30.237Z,97315.61
2019-05-07T14:56:39.236Z,97320.86
2019-05-07T14:59:48.430Z,97328.89
2019-05-07T15:02:56.531Z,97322.67
2019-05-07T15:06:04.540Z,97318.85
2019-05-07T15:09:12.644Z,97318.91
2019-05-07T15:12:20.538Z,97318.91
2019-05-07T15:15:28.563Z,97304.63
2019-05-07T15:18:52.952Z,97306.47
2019-05-07T15:22:20.274Z,97306.47
2019-05-07T15:25:31.993Z,97316.09
2019-05-07T15:28:41.908Z,97315.31
2019-05-07T15:32:08.034Z,97312.75
2019-05-07T15:35:16.263Z,97304.54
2019-05-07T15:38:24.517Z,97310.03
2019-05-07T15:41:32.681Z,97309.37
2019-05-07T15:44:43.223Z,97297.50
2019-05-07T15:47:53.249Z,97310.45
2019-05-07T15:51:01.908Z,97306.77
2019-05-07T15:54:12.647Z,97310.70
2019-05-07T15:57:25.396Z,97311.89
2019-05-07T16:00:33.587Z,97309.40
2019-05-07T16:03:45.701Z,97305.33
2019-05-07T16:06:54.704Z,97306.00
2019-05-07T16:10:04.538Z,97305.80
2019-05-07T16:13:14.252Z,97299.06
2019-05-07T16:16:23.610Z,97299.06
2019-05-07T16:19:32.215Z,97291.44
2019-05-07T16:22:43.255Z,97295.42
2019-05-07T16:25:52.807Z,97293.27
2019-05-07T16:29:04.717Z,97291.53
2019-05-07T16:32:13.562Z,97291.61
2019-05-07T16:35:24.441Z,97275.27
2019-05-07T16:38:34.531Z,97275.27
2019-05-07T16:41:44.060Z,97276.88
2019-05-07T16:44:52.395Z,97276.88
2019-05-07T16:48:03.183Z,97285.38
2019-05-07T16:51:12.798Z,97274.34
2019-05-07T16:54:21.403Z,97275.39
2019-05-07T16:57:38.378Z,97277.77
2019-05-07T17:00:52.281Z,97279.27
2019-05-07T17:04:03.671Z,97279.27
2019-05-07T17:07:13.891Z,97276.19
2019-05-07T17:10:26.428Z,97281.42
2019-05-07T17:13:37.371Z,97277.20
2019-05-07T17:16:51.628Z,97282.10
2019-05-07T17:20:02.138Z,97279.05
2019-05-07T17:23:11.942Z,97270.72
2019-05-07T17:26:23.033Z,97270.72
2019-05-07T17:29:32.065Z,97268.31
2019-05-07T17:32:41.976Z,97268.31
2019-05-07T17:35:51.746Z,97274.11
2019-05-07T17:39:04.310Z,97270.59
2019-05-07T17:42:17.439Z,97268.89
2019-05-07T17:45:26.537Z,97269.77
2019-05-07T17:48:36.443Z,97268.01
2019-05-07T17:51:45.075Z,97268.01
2019-05-07T17:54:53.155Z,97269.73
2019-05-07T17:58:01.992Z,97272.69
2019-05-07T18:01:11.098Z,97280.08
2019-05-07T18:04:19.646Z,97273.42
2019-05-07T18:07:28.104Z,97272.97
2019-05-07T18:10:38.591Z,97269.52
2019-05-07T18:13:47.127Z,97266.66
2019-05-07T18:17:14.265Z,97266.66
2019-05-07T18:20:22.393Z,97265.61
2019-05-07T18:23:32.133Z,97267.19
2019-05-07T18:26:42.182Z,97269.59
2019-05-07T18:29:52.089Z,97269.59
2019-05-07T18:33:18.916Z,97271.52
2019-05-07T18:36:31.646Z,97276.68
2019-05-07T18:39:42.639Z,97275.52
2019-05-07T18:42:54.053Z,97274.38
2019-05-07T18:46:02.854Z,97274.42
2019-05-07T18:49:14.048Z,97275.13
2019-05-07T18:52:24.582Z,97274.78
2019-05-07T18:55:33.090Z,97273.34
2019-05-07T18:58:42.628Z,97273.34
2019-05-07T19:01:54.498Z,97277.66
2019-05-07T19:05:05.659Z,97270.98
2019-05-07T19:08:14.251Z,97251.94
2019-05-07T19:11:22.986Z,97251.94
2019-05-07T19:14:33.631Z,97269.08
2019-05-07T19:17:44.449Z,97266.67
2019-05-07T19:20:53.006Z,97266.67
2019-05-07T19:24:02.310Z,97273.82
2019-05-07T19:27:09.567Z,97280.33
2019-05-07T19:30:18.467Z,97283.69
2019-05-07T19:33:28.563Z,97278.73
2019-05-07T19:36:36.769Z,97281.57
2019-05-07T19:39:46.747Z,97281.57
2019-05-07T19:42:56.247Z,97281.17
2019-05-07T19:46:04.555Z,97277.80
2019-05-07T19:49:13.258Z,97272.78
2019-05-07T19:52:23.190Z,97272.78
2019-05-07T19:55:52.188Z,97264.16
2019-05-07T19:59:03.632Z,97261.05
2019-05-07T20:02:16.421Z,97247.05
2019-05-07T20:05:23.463Z,97247.05
2019-05-07T20:08:32.467Z,97253.42
2019-05-07T20:11:48.935Z,97256.34
2019-05-07T20:14:57.429Z,97253.48
2019-05-07T20:18:04.510Z,97257.48
2019-05-07T20:21:17.370Z,97246.12
2019-05-07T20:24:25.589Z,97231.97
2019-05-07T20:27:33.528Z,97231.97
2019-05-07T20:30:41.918Z,97242.31
2019-05-07T20:33:52.846Z,97242.31
2019-05-07T20:37:02.063Z,97240.70
2019-05-07T20:40:12.184Z,97233.99
2019-05-07T20:43:20.551Z,97231.50
2019-05-07T20:46:29.262Z,97230.75
2019-05-07T20:49:38.515Z,97230.75
2019-05-07T20:52:46.564Z,97231.81
2019-05-07T20:56:02.226Z,97223.09
2019-05-07T20:59:12.503Z,97227.08
2019-05-07T21:02:22.534Z,97227.05
2019-05-07T21:05:32.419Z,97223.80
2019-05-07T21:08:42.648Z,97219.48
2019-05-07T21:11:52.380Z,97219.20
2019-05-07T21:15:00.577Z,97214.75
2019-05-07T21:18:09.276Z,97215.81
2019-05-07T21:21:17.527Z,97215.81
2019-05-07T21:24:25.591Z,97209.59
2019-05-07T21:27:33.765Z,97210.14
2019-05-07T21:30:42.796Z,97210.14
2019-05-07T21:33:52.351Z,97203.37
2019-05-07T21:37:00.572Z,97217.89
2019-05-07T21:40:08.765Z,97201.91
2019-05-07T21:43:17.017Z,97201.91
2019-05-07T21:46:25.261Z,97219.49
2019-05-07T21:49:33.546Z,97214.53
2019-05-07T21:52:44.250Z,97196.80
2019-05-07T21:56:12.346Z,97196.80
2019-05-07T21:59:22.918Z,97205.17
2019-05-07T22:02:32.757Z,97199.73
2019-05-07T22:05:44.044Z,97199.73
2019-05-07T22:08:52.523Z,97189.19
2019-05-07T22:12:03.541Z,97185.06
2019-05-07T22:15:13.255Z,97181.74
2019-05-07T22:18:22.650Z,97181.74
2019-05-07T22:21:33.978Z,97181.12
2019-05-07T22:24:42.542Z,97179.80
2019-05-07T22:27:52.855Z,97152.60
2019-05-07T22:31:27.368Z,97152.60
2019-05-07T22:34:52.050Z,97161.77
2019-05-07T22:38:03.760Z,97159.59
2019-05-07T22:41:12.928Z,97152.20
2019-05-07T22:44:25.461Z,97145.70
2019-05-07T22:47:32.494Z,97145.70
2019-05-07T22:50:39.663Z,97146.12
2019-05-07T22:53:47.666Z,97128.64
2019-05-07T22:57:14.303Z,97128.64
2019-05-07T23:00:32.133Z,97128.30
2019-05-07T23:03:42.860Z,97127.69
2019-05-07T23:06:52.668Z,97123.88
2019-05-07T23:10:02.377Z,97123.06
2019-05-07T23:13:10.007Z,97124.64
2019-05-07T23:16:17.920Z,97114.55
2019-05-07T23:19:26.094Z,97123.37
2019-05-07T23:22:34.282Z,97112.33
2019-05-07T23:25:43.191Z,97102.31
2019-05-07T23:28:52.511Z,97098.05
2019-05-07T23:32:01.924Z,97098.05
2019-05-07T23:35:12.560Z,97088.11
2019-05-07T23:38:22.387Z,97083.38
2019-05-07T23:41:36.517Z,97082.16
2019-05-07T23:44:44.482Z,97061.30
2019-05-07T23:47:51.915Z,97061.30
2019-05-07T23:51:02.058Z,97072.56
2019-05-07T23:54:11.951Z,97061.91
2019-05-07T23:57:18.459Z,97066.63
